createdAt,value
2023-03-06T00:00:22.483Z,4.20
2023-03-06T00:02:52.307Z,4.10
2023-03-06T00:05:20.940Z,4.10
2023-03-06T00:07:49.072Z,4.20
2023-03-06T00:10:19.447Z,4.20
2023-03-06T00:12:47.717Z,4.20
2023-03-06T00:15:16.132Z,4.10
2023-03-06T00:17:44.231Z,4.20
2023-03-06T00:20:14.880Z,4.20
2023-03-06T00:22:43.516Z,4.10
2023-03-06T00:25:15.964Z,4.10
2023-03-06T00:27:44.696Z,4.10
2023-03-06T00:30:14.656Z,4.00
2023-03-06T00:32:43.305Z,4.10
2023-03-06T00:35:13.750Z,4.00
2023-03-06T00:37:42.813Z,4.00
2023-03-06T00:40:15.737Z,4.00
2023-03-06T00:42:44.225Z,4.00
2023-03-06T00:45:13.349Z,4.10
2023-03-06T00:47:42.047Z,4.00
2023-03-06T00:50:11.800Z,4.00
2023-03-06T00:52:42.084Z,4.00
2023-03-06T00:55:11.404Z,4.00
2023-03-06T00:57:39.784Z,4.10
2023-03-06T01:00:09.971Z,4.10
2023-03-06T01:02:38.094Z,4.00
2023-03-06T01:05:07.000Z,4.00
2023-03-06T01:07:37.226Z,4.00
2023-03-06T01:10:09.019Z,4.00
2023-03-06T01:12:37.340Z,4.00
2023-03-06T01:15:06.668Z,4.00
2023-03-06T01:17:34.803Z,4.00
2023-03-06T01:20:03.549Z,4.00
2023-03-06T01:22:32.182Z,4.00
2023-03-06T01:25:00.587Z,3.90
2023-03-06T01:27:30.355Z,4.00
2023-03-06T01:29:58.805Z,4.00
2023-03-06T01:32:27.370Z,3.80
2023-03-06T01:34:55.690Z,3.80
2023-03-06T01:37:24.130Z,3.90
2023-03-06T01:39:52.254Z,3.90
2023-03-06T01:42:20.347Z,3.90
2023-03-06T01:45:06.527Z,3.90
2023-03-06T01:47:34.649Z,3.90
2023-03-06T01:50:04.312Z,3.90
2023-03-06T01:52:36.919Z,3.90
2023-03-06T01:55:08.746Z,3.90
2023-03-06T01:57:40.732Z,3.90
2023-03-06T02:00:13.668Z,4.00
2023-03-06T02:02:45.280Z,3.90
2023-03-06T02:05:14.028Z,3.90
2023-03-06T02:07:43.739Z,3.90
2023-03-06T02:10:14.092Z,3.90
2023-03-06T02:12:44.009Z,4.10
2023-03-06T02:15:15.714Z,4.10
2023-03-06T02:17:44.969Z,4.00
2023-03-06T02:20:21.945Z,4.00
2023-03-06T02:22:55.174Z,4.00
2023-03-06T02:25:33.158Z,4.00
2023-03-06T02:28:01.741Z,3.90
2023-03-06T02:30:31.653Z,4.00
2023-03-06T02:32:59.786Z,3.90
2023-03-06T02:35:29.189Z,3.90
2023-03-06T02:37:58.496Z,4.00
2023-03-06T02:40:28.171Z,4.00
2023-03-06T02:42:58.236Z,4.00
2023-03-06T02:45:33.480Z,4.00
2023-03-06T02:48:01.561Z,4.00
2023-03-06T02:50:30.096Z,3.90
2023-03-06T02:52:58.266Z,3.90
2023-03-06T02:55:27.828Z,3.90
2023-03-06T02:57:56.111Z,4.00
2023-03-06T03:00:24.225Z,4.00
2023-03-06T03:02:52.625Z,3.90
2023-03-06T03:05:20.751Z,3.90
2023-03-06T03:07:49.097Z,3.90
2023-03-06T03:10:17.483Z,3.90
2023-03-06T03:12:47.215Z,3.90
2023-03-06T03:15:15.740Z,3.90
2023-03-06T03:17:44.180Z,3.80
2023-03-06T03:20:15.303Z,4.00
2023-03-06T03:22:44.186Z,3.90
2023-03-06T03:25:12.636Z,3.80
2023-03-06T03:27:41.109Z,3.80
2023-03-06T03:30:12.482Z,3.70
2023-03-06T03:32:40.645Z,3.80
2023-03-06T03:35:10.563Z,3.80
2023-03-06T03:37:39.223Z,3.80
2023-03-06T03:40:10.287Z,3.80
2023-03-06T03:42:38.782Z,3.90
2023-03-06T03:45:08.119Z,3.80
2023-03-06T03:47:37.695Z,3.80
2023-03-06T03:50:06.995Z,3.80
2023-03-06T03:52:35.119Z,3.90
2023-03-06T03:55:03.275Z,3.80
2023-03-06T03:57:31.390Z,3.80
2023-03-06T03:59:59.830Z,3.80
2023-03-06T04:02:28.208Z,3.90
2023-03-06T04:04:58.107Z,3.90
2023-03-06T04:07:26.235Z,3.80
2023-03-06T04:09:54.433Z,3.70
2023-03-06T04:12:22.849Z,3.90
2023-03-06T04:14:51.112Z,3.90
2023-03-06T04:17:19.201Z,3.70
2023-03-06T04:19:47.524Z,3.80
2023-03-06T04:22:16.977Z,3.80
2023-03-06T04:24:45.084Z,3.70
2023-03-06T04:27:13.165Z,3.80
2023-03-06T04:29:41.665Z,3.80
2023-03-06T04:32:10.989Z,3.50
2023-03-06T04:34:39.402Z,3.30
2023-03-06T04:37:07.732Z,3.10
2023-03-06T04:39:37.483Z,3.10
2023-03-06T04:42:05.909Z,3.20
2023-03-06T04:44:33.987Z,3.20
2023-03-06T04:47:02.097Z,3.20
2023-03-06T04:49:30.605Z,3.20
2023-03-06T04:51:58.733Z,3.10
2023-03-06T04:54:27.316Z,3.00
2023-03-06T04:56:57.350Z,2.90
2023-03-06T04:59:25.764Z,2.90
2023-03-06T05:01:54.289Z,2.90
2023-03-06T05:04:22.710Z,2.80
2023-03-06T05:06:51.220Z,3.00
2023-03-06T05:09:19.289Z,2.90
2023-03-06T05:11:47.467Z,3.00
2023-03-06T05:14:16.928Z,3.00
2023-03-06T05:16:45.293Z,3.10
2023-03-06T05:19:13.348Z,2.90
2023-03-06T05:21:41.726Z,2.90
2023-03-06T05:24:11.127Z,3.10
2023-03-06T05:26:39.298Z,3.00
2023-03-06T05:29:07.733Z,3.10
2023-03-06T05:31:37.575Z,3.00
2023-03-06T05:34:05.725Z,3.00
2023-03-06T05:36:34.018Z,3.10
2023-03-06T05:39:02.088Z,3.20
2023-03-06T05:41:30.556Z,3.20
2023-03-06T05:43:59.302Z,3.20
2023-03-06T05:46:27.416Z,3.10
2023-03-06T05:48:57.959Z,3.10
2023-03-06T05:51:27.174Z,2.90
2023-03-06T05:53:55.266Z,3.00
2023-03-06T05:56:23.480Z,3.00
2023-03-06T05:58:51.676Z,2.80
2023-03-06T06:01:22.310Z,2.80
2023-03-06T06:03:50.499Z,2.70
2023-03-06T06:06:20.494Z,2.60
2023-03-06T06:08:48.591Z,2.80
2023-03-06T06:11:18.397Z,2.70
2023-03-06T06:13:46.817Z,2.70
2023-03-06T06:16:16.863Z,2.60
2023-03-06T06:18:45.076Z,2.80
2023-03-06T06:21:14.678Z,2.70
2023-03-06T06:23:44.718Z,2.90
2023-03-06T06:26:12.913Z,2.90
2023-03-06T06:28:41.314Z,2.60
2023-03-06T06:31:10.786Z,2.50
2023-03-06T06:33:39.387Z,2.50
2023-03-06T06:36:15.667Z,2.40
2023-03-06T06:38:45.209Z,2.40
2023-03-06T06:44:02.291Z,2.70
2023-03-06T06:47:18.262Z,2.70
2023-03-06T06:49:18.823Z,2.70
2023-03-06T06:51:47.554Z,2.70
2023-03-06T06:54:17.039Z,2.80
2023-03-06T06:56:45.170Z,2.70
2023-03-06T06:59:16.940Z,2.70
2023-03-06T07:01:45.735Z,2.70
2023-03-06T07:04:14.521Z,2.90
2023-03-06T07:06:42.833Z,2.80
2023-03-06T07:09:11.266Z,2.70
2023-03-06T07:11:41.359Z,2.80
2023-03-06T07:14:09.744Z,2.70
2023-03-06T07:16:38.135Z,2.80
2023-03-06T07:19:06.281Z,2.70
2023-03-06T07:21:34.570Z,2.80
2023-03-06T07:24:02.783Z,2.80
2023-03-06T07:26:32.789Z,2.90
2023-03-06T07:29:04.769Z,2.90
2023-03-06T07:31:33.450Z,3.00
2023-03-06T07:34:04.502Z,3.00
2023-03-06T07:36:33.502Z,3.00
2023-03-06T07:39:01.883Z,3.20
2023-03-06T07:41:30.335Z,3.10
2023-03-06T07:43:58.417Z,3.10
2023-03-06T07:46:28.075Z,3.10
2023-03-06T07:48:56.193Z,3.00
2023-03-06T07:51:24.500Z,3.00
2023-03-06T07:53:52.649Z,3.10
2023-03-06T07:56:20.744Z,3.20
2023-03-06T07:58:49.431Z,3.20
2023-03-06T08:01:19.745Z,3.30
2023-03-06T08:03:50.338Z,3.40
2023-03-06T08:06:20.714Z,3.40
2023-03-06T08:08:50.192Z,3.40
2023-03-06T08:11:21.040Z,3.30
2023-03-06T08:13:52.595Z,3.30
2023-03-06T08:16:22.055Z,3.20
2023-03-06T08:18:52.137Z,3.30
2023-03-06T08:21:22.790Z,3.40
2023-03-06T08:23:51.569Z,3.30
2023-03-06T08:26:22.468Z,3.30
2023-03-06T08:28:52.166Z,3.30
2023-03-06T08:31:27.154Z,3.30
2023-03-06T08:33:58.019Z,3.30
2023-03-06T08:36:26.452Z,3.20
2023-03-06T08:38:54.941Z,3.10
2023-03-06T08:41:23.780Z,3.10
2023-03-06T08:43:52.472Z,3.10
2023-03-06T08:46:22.692Z,3.10
2023-03-06T08:48:51.081Z,3.20
2023-03-06T08:51:21.725Z,3.20
2023-03-06T08:53:50.781Z,3.20
2023-03-06T08:56:19.652Z,3.20
2023-03-06T08:58:49.106Z,3.20
2023-03-06T09:01:18.535Z,3.20
2023-03-06T09:03:46.786Z,3.30
2023-03-06T09:06:15.604Z,3.30
2023-03-06T09:08:45.493Z,3.20
2023-03-06T09:11:14.398Z,3.20
2023-03-06T09:13:43.220Z,3.20
2023-03-06T09:16:12.429Z,3.20
2023-03-06T09:18:40.940Z,3.20
2023-03-06T09:21:09.893Z,3.10
2023-03-06T09:23:39.553Z,3.20
2023-03-06T09:26:09.557Z,3.20
2023-03-06T09:28:39.225Z,3.20
2023-03-06T09:31:10.334Z,3.10
2023-03-06T09:33:39.084Z,3.10
2023-03-06T09:36:09.038Z,3.20
2023-03-06T09:38:37.134Z,3.20
2023-03-06T09:41:13.485Z,3.20
2023-03-06T09:43:44.119Z,3.20
2023-03-06T09:46:20.821Z,3.10
2023-03-06T09:48:58.724Z,3.30
2023-03-06T09:51:36.453Z,3.30
2023-03-06T09:54:11.808Z,3.10
2023-03-06T09:56:47.472Z,3.20
2023-03-06T09:59:20.508Z,3.30
2023-03-06T10:01:59.053Z,3.30
2023-03-06T10:04:35.861Z,3.40
2023-03-06T10:07:12.724Z,3.40
2023-03-06T10:09:46.450Z,3.30
2023-03-06T10:12:24.888Z,3.10
2023-03-06T10:15:15.475Z,3.10
2023-03-06T10:17:45.236Z,3.20
2023-03-06T10:20:19.309Z,3.40
2023-03-06T10:23:05.126Z,3.50
2023-03-06T10:25:38.788Z,3.60
2023-03-06T10:28:17.143Z,3.60
2023-03-06T10:30:53.475Z,3.70
2023-03-06T10:33:29.200Z,3.60
2023-03-06T10:35:57.836Z,3.40
2023-03-06T10:38:28.180Z,3.50
2023-03-06T10:41:08.230Z,3.60
2023-03-06T10:43:39.269Z,3.70
2023-03-06T10:46:08.563Z,3.50
2023-03-06T10:48:39.379Z,3.40
2023-03-06T10:51:19.071Z,3.30
2023-03-06T10:53:54.362Z,3.40
2023-03-06T10:56:31.113Z,3.40
2023-03-06T10:59:13.937Z,3.20
2023-03-06T11:01:44.301Z,2.90
2023-03-06T11:04:28.479Z,2.80
2023-03-06T11:07:08.648Z,3.00
2023-03-06T11:09:37.538Z,3.10
2023-03-06T11:12:27.958Z,3.40
2023-03-06T11:15:19.038Z,3.30
2023-03-06T11:17:54.288Z,3.50
2023-03-06T11:20:25.121Z,3.60
2023-03-06T11:22:57.061Z,3.70
2023-03-06T11:25:31.516Z,3.70
2023-03-06T11:28:04.864Z,3.80
2023-03-06T11:30:40.371Z,4.00
2023-03-06T11:33:18.909Z,4.10
2023-03-06T11:35:52.909Z,4.10
2023-03-06T11:38:26.885Z,4.10
2023-03-06T11:40:57.483Z,3.90
2023-03-06T11:43:33.473Z,4.00
2023-03-06T11:46:08.740Z,4.20
2023-03-06T11:48:43.360Z,4.20
2023-03-06T11:51:18.959Z,4.30
2023-03-06T11:53:49.415Z,4.40
2023-03-06T11:56:32.300Z,4.20
2023-03-06T11:59:36.593Z,4.40
2023-03-06T12:02:19.708Z,4.40
2023-03-06T12:04:55.356Z,4.50
2023-03-06T12:07:30.632Z,4.40
2023-03-06T12:10:16.356Z,4.70
2023-03-06T12:13:11.903Z,4.70
2023-03-06T12:16:04.752Z,4.60
2023-03-06T12:18:43.837Z,4.70
2023-03-06T12:21:21.860Z,4.70
2023-03-06T12:24:08.377Z,4.70
2023-03-06T12:26:55.521Z,4.60
2023-03-06T12:29:47.299Z,4.90
2023-03-06T12:32:26.375Z,4.90
2023-03-06T12:35:36.840Z,5.00
2023-03-06T12:38:20.599Z,5.20
2023-03-06T12:41:04.037Z,5.20
2023-03-06T12:44:05.612Z,5.10
2023-03-06T12:46:38.684Z,5.10
2023-03-06T12:49:12.281Z,5.20
2023-03-06T12:51:44.226Z,5.30
2023-03-06T12:54:13.831Z,5.10
2023-03-06T12:56:43.310Z,5.10
2023-03-06T12:59:36.230Z,5.30
2023-03-06T13:02:43.752Z,5.20
2023-03-06T13:05:42.464Z,5.30
2023-03-06T13:08:38.591Z,5.30
2023-03-06T13:11:40.910Z,5.40
2023-03-06T13:14:23.801Z,5.40
2023-03-06T13:16:52.739Z,5.40
2023-03-06T13:19:23.066Z,5.50
2023-03-06T13:22:15.337Z,5.40
2023-03-06T13:24:45.831Z,5.40
2023-03-06T13:27:34.055Z,5.40
2023-03-06T13:30:23.117Z,5.50
2023-03-06T13:32:54.068Z,5.70
2023-03-06T13:35:52.478Z,5.90
2023-03-06T13:38:36.306Z,5.70
2023-03-06T13:41:45.046Z,5.90
2023-03-06T13:44:44.375Z,5.90
2023-03-06T13:48:05.824Z,5.90
2023-03-06T13:50:39.726Z,5.70
2023-03-06T13:53:45.332Z,6.00
2023-03-06T13:56:48.075Z,6.10
2023-03-06T13:59:50.543Z,6.20
2023-03-06T14:02:42.675Z,6.30
2023-03-06T14:05:13.422Z,6.20
2023-03-06T14:07:44.120Z,6.30
2023-03-06T14:10:22.054Z,6.40
2023-03-06T14:13:04.141Z,6.40
2023-03-06T14:15:44.939Z,6.30
2023-03-06T14:18:20.573Z,6.20
2023-03-06T14:20:53.147Z,6.40
2023-03-06T14:23:27.193Z,6.40
2023-03-06T14:26:02.207Z,6.50
2023-03-06T14:28:32.147Z,6.30
2023-03-06T14:31:03.797Z,6.60
2023-03-06T14:33:40.129Z,6.60
2023-03-06T14:36:09.325Z,6.60
2023-03-06T14:38:45.476Z,6.60
2023-03-06T14:41:14.284Z,6.70
2023-03-06T14:43:42.741Z,6.80
2023-03-06T14:46:20.302Z,6.80
2023-03-06T14:48:50.341Z,6.70
2023-03-06T14:51:20.642Z,6.80
2023-03-06T14:53:50.570Z,6.80
2023-03-06T14:56:21.222Z,6.90
2023-03-06T14:58:55.560Z,6.70
2023-03-06T15:01:32.553Z,6.70
2023-03-06T15:04:02.498Z,6.70
2023-03-06T15:06:36.003Z,6.60
2023-03-06T15:09:10.185Z,6.60
2023-03-06T15:12:00.216Z,6.30
2023-03-06T15:14:34.288Z,6.20
2023-03-06T15:17:25.569Z,6.30
2023-03-06T15:19:55.603Z,6.10
2023-03-06T15:22:30.441Z,6.40
2023-03-06T15:25:22.232Z,6.20
2023-03-06T15:27:52.125Z,6.30
2023-03-06T15:30:26.318Z,6.50
2023-03-06T15:33:10.593Z,6.40
2023-03-06T15:35:39.480Z,6.20
2023-03-06T15:38:25.700Z,6.10
2023-03-06T15:40:58.629Z,6.10
2023-03-06T15:43:27.166Z,5.90
2023-03-06T15:46:00.394Z,6.00
2023-03-06T15:48:30.146Z,6.00
2023-03-06T15:50:58.286Z,5.90
2023-03-06T15:53:26.476Z,5.80
2023-03-06T15:55:54.713Z,5.80
2023-03-06T15:58:26.752Z,5.70
2023-03-06T16:00:54.983Z,5.80
2023-03-06T16:03:24.080Z,5.90
2023-03-06T16:05:53.564Z,5.90
2023-03-06T16:08:21.696Z,5.80
2023-03-06T16:10:51.439Z,5.90
2023-03-06T16:13:27.036Z,5.90
2023-03-06T16:15:55.227Z,5.90
2023-03-06T16:18:23.603Z,5.90
2023-03-06T16:20:53.103Z,5.90
2023-03-06T16:23:21.223Z,5.90
2023-03-06T16:25:50.614Z,5.70
2023-03-06T16:28:19.068Z,5.70
2023-03-06T16:30:47.467Z,5.70
2023-03-06T16:33:16.139Z,5.80
2023-03-06T16:35:46.711Z,5.70
2023-03-06T16:38:16.750Z,5.70
2023-03-06T16:40:45.408Z,5.70
2023-03-06T16:43:16.156Z,5.60
2023-03-06T16:45:45.020Z,5.40
2023-03-06T16:48:16.958Z,5.20
2023-03-06T16:50:45.459Z,5.20
2023-03-06T16:53:16.487Z,5.10
2023-03-06T16:55:44.643Z,5.20
2023-03-06T16:58:13.780Z,5.30
2023-03-06T17:00:41.913Z,5.20
2023-03-06T17:03:10.371Z,5.10
2023-03-06T17:05:39.666Z,5.00
2023-03-06T17:08:07.769Z,4.90
2023-03-06T17:10:40.322Z,4.90
2023-03-06T17:13:09.036Z,4.80
2023-03-06T17:15:37.646Z,4.80
2023-03-06T17:18:05.986Z,4.70
2023-03-06T17:20:34.299Z,4.70
2023-03-06T17:23:02.689Z,4.50
2023-03-06T17:25:30.764Z,4.50
2023-03-06T17:28:00.566Z,4.60
2023-03-06T17:30:28.644Z,4.60
2023-03-06T17:32:58.476Z,4.50
2023-03-06T17:35:26.645Z,4.50
2023-03-06T17:37:54.780Z,4.50
2023-03-06T17:40:22.918Z,4.40
2023-03-06T17:42:51.694Z,4.30
2023-03-06T17:45:21.287Z,4.30
2023-03-06T17:47:49.385Z,4.30
2023-03-06T17:50:17.785Z,4.20
2023-03-06T17:52:46.293Z,4.20
2023-03-06T17:55:14.418Z,4.20
2023-03-06T17:57:42.811Z,4.10
2023-03-06T18:00:12.449Z,4.10
2023-03-06T18:02:41.990Z,4.00
2023-03-06T18:05:10.903Z,3.80
2023-03-06T18:07:39.508Z,3.80
2023-03-06T18:10:08.318Z,3.70
2023-03-06T18:12:36.414Z,3.60
2023-03-06T18:15:05.155Z,3.60
2023-03-06T18:17:33.292Z,3.50
2023-03-06T18:20:02.811Z,3.50
2023-03-06T18:22:30.900Z,3.50
2023-03-06T18:24:59.033Z,3.40
2023-03-06T18:27:27.226Z,3.40
2023-03-06T18:29:55.612Z,3.30
2023-03-06T18:32:23.808Z,3.30
2023-03-06T18:34:51.915Z,3.40
2023-03-06T18:37:21.420Z,3.20
2023-03-06T18:39:49.721Z,3.20
2023-03-06T18:42:18.522Z,3.10
2023-03-06T18:44:48.302Z,3.10
2023-03-06T18:47:16.474Z,3.10
2023-03-06T18:49:46.136Z,3.00
2023-03-06T18:52:14.584Z,2.80
2023-03-06T18:54:44.135Z,2.80
2023-03-06T18:57:12.333Z,2.70
2023-03-06T18:59:40.665Z,2.80
2023-03-06T19:02:09.285Z,2.90
2023-03-06T19:04:38.755Z,2.80
2023-03-06T19:07:06.944Z,2.70
2023-03-06T19:09:35.205Z,2.50
2023-03-06T19:12:04.973Z,2.60
2023-03-06T19:14:33.094Z,2.80
2023-03-06T19:17:01.979Z,2.70
2023-03-06T19:19:30.076Z,2.70
2023-03-06T19:21:59.543Z,2.40
2023-03-06T19:24:27.697Z,2.40
2023-03-06T19:26:55.828Z,2.50
2023-03-06T19:29:25.300Z,2.40
2023-03-06T19:31:53.481Z,2.20
2023-03-06T19:34:21.647Z,2.30
2023-03-06T19:36:51.233Z,2.20
2023-03-06T19:39:19.662Z,2.20
2023-03-06T19:41:48.609Z,2.20
2023-03-06T19:44:17.335Z,2.00
2023-03-06T19:46:46.938Z,1.90
2023-03-06T19:49:18.067Z,1.90
2023-03-06T19:51:46.376Z,2.00
2023-03-06T19:54:15.047Z,2.00
2023-03-06T19:56:43.306Z,2.00
2023-03-06T19:59:11.765Z,2.10
2023-03-06T20:01:40.530Z,2.10
2023-03-06T20:04:10.229Z,2.10
2023-03-06T20:06:38.960Z,2.10
2023-03-06T20:09:09.532Z,2.10
2023-03-06T20:11:37.860Z,2.00
2023-03-06T20:14:08.689Z,2.00
2023-03-06T20:16:37.561Z,2.00
2023-03-06T20:19:06.462Z,2.00
2023-03-06T20:21:37.857Z,1.90
2023-03-06T20:24:06.990Z,2.00
2023-03-06T20:26:37.070Z,2.00
2023-03-06T20:29:05.246Z,2.00
2023-03-06T20:31:33.761Z,1.90
2023-03-06T20:34:01.948Z,1.90
2023-03-06T20:36:31.811Z,1.90
2023-03-06T20:39:03.095Z,1.80
2023-03-06T20:41:32.170Z,1.80
2023-03-06T20:44:01.104Z,1.60
2023-03-06T20:46:29.957Z,1.50
2023-03-06T20:48:58.519Z,1.40
2023-03-06T20:51:28.732Z,1.20
2023-03-06T20:53:57.732Z,1.30
2023-03-06T20:56:29.246Z,1.20
2023-03-06T20:58:58.466Z,1.10
2023-03-06T21:01:28.336Z,1.00
2023-03-06T21:03:57.888Z,0.90
2023-03-06T21:06:26.847Z,1.00
2023-03-06T21:08:55.314Z,1.00
2023-03-06T21:11:23.920Z,1.10
2023-03-06T21:13:53.510Z,1.10
2023-03-06T21:16:24.169Z,1.00
2023-03-06T21:18:52.743Z,1.00
2023-03-06T21:21:23.544Z,1.00
2023-03-06T21:23:52.356Z,0.90
2023-03-06T21:26:22.515Z,0.80
2023-03-06T21:28:50.666Z,0.90
2023-03-06T21:31:22.211Z,0.90
2023-03-06T21:33:51.051Z,0.90
2023-03-06T21:36:20.532Z,0.90
2023-03-06T21:38:49.183Z,0.80
2023-03-06T21:41:19.369Z,0.80
2023-03-06T21:43:48.052Z,0.70
2023-03-06T21:46:16.272Z,0.80
2023-03-06T21:48:46.322Z,0.90
2023-03-06T21:51:16.941Z,1.00
2023-03-06T21:53:45.864Z,1.10
2023-03-06T21:56:15.018Z,1.00
2023-03-06T21:58:43.166Z,1.00
2023-03-06T22:01:12.154Z,1.00
2023-03-06T22:03:40.918Z,0.90
2023-03-06T22:06:12.180Z,1.00
2023-03-06T22:08:40.652Z,1.00
2023-03-06T22:11:09.760Z,1.20
2023-03-06T22:13:38.498Z,1.20
2023-03-06T22:16:07.450Z,1.20
2023-03-06T22:18:36.575Z,1.20
2023-03-06T22:21:08.328Z,1.20
2023-03-06T22:23:38.097Z,1.20
2023-03-06T22:26:08.281Z,1.20
2023-03-06T22:28:36.883Z,1.20
2023-03-06T22:31:09.221Z,1.30
2023-03-06T22:33:38.223Z,1.20
2023-03-06T22:36:08.444Z,1.30
2023-03-06T22:38:39.961Z,1.30
2023-03-06T22:41:09.321Z,1.30
2023-03-06T22:43:38.051Z,1.30
2023-03-06T22:46:08.335Z,1.40
2023-03-06T22:48:37.250Z,1.30
2023-03-06T22:51:07.087Z,1.40
2023-03-06T22:53:35.812Z,1.30
2023-03-06T22:56:07.712Z,1.40
2023-03-06T22:58:37.762Z,1.30
2023-03-06T23:01:07.648Z,1.30
2023-03-06T23:03:37.805Z,1.40
2023-03-06T23:06:10.403Z,1.40
2023-03-06T23:08:39.707Z,1.40
2023-03-06T23:11:11.392Z,1.40
2023-03-06T23:13:40.365Z,1.40
2023-03-06T23:16:10.647Z,1.40
2023-03-06T23:18:39.967Z,1.50
2023-03-06T23:21:09.210Z,1.40
2023-03-06T23:23:37.511Z,1.40
2023-03-06T23:26:06.819Z,1.40
2023-03-06T23:28:36.399Z,1.40
2023-03-06T23:31:08.898Z,1.40
2023-03-06T23:33:38.712Z,1.40
2023-03-06T23:36:08.684Z,1.40
2023-03-06T23:38:36.854Z,1.50
2023-03-06T23:41:06.779Z,1.50
2023-03-06T23:43:36.504Z,1.50
2023-03-06T23:46:06.379Z,1.60
2023-03-06T23:48:35.520Z,1.60
2023-03-06T23:51:06.705Z,1.70
2023-03-06T23:53:35.263Z,1.70
2023-03-06T23:56:06.328Z,1.80
2023-03-06T23:58:36.150Z,1.90
